Time;durP1;ratioP1;P1;durP2;ratioP2;P2;SDS_P1;SDS_P2;PMS_P1;PMS_P2;Temp;Humidity;BMP_temperature;BMP_pressure;BME280_temperature;BME280_humidity;BME280_pressure;Samples;Min_cycle;Max_cycle;Signal;HPM_P1;HPM_P2
2022/04/30 00:00:59;;;;;;;12.77;8.85;;;;;;;11.13;100.00;93469.66;5031620;28;20045;-81
2022/04/30 00:03:27;;;;;;;12.77;9.27;;;;;;;10.99;100.00;93450.16;5031685;28;20045;-82
2022/04/30 00:05:55;;;;;;;14.25;9.45;;;;;;;11.18;100.00;93469.03;5031817;28;20091;-82
2022/04/30 00:08:23;;;;;;;13.90;9.60;;;;;;;11.21;100.00;93471.22;5031751;28;20046;-82
2022/04/30 00:10:51;;;;;;;12.50;8.93;;;;;;;11.07;100.00;93450.69;5031670;28;20049;-82
2022/04/30 00:13:18;;;;;;;11.98;8.90;;;;;;;11.23;100.00;93475.16;5031575;28;20052;-82
2022/04/30 00:15:44;;;;;;;12.40;8.25;;;;;;;11.02;100.00;93447.94;5031572;28;20037;-84
2022/04/30 00:18:11;;;;;;;12.50;8.52;;;;;;;11.12;100.00;93473.22;5031440;28;20053;-83
2022/04/30 00:20:38;;;;;;;14.30;9.32;;;;;;;10.86;100.00;93471.56;5031240;28;20833;-83
2022/04/30 00:23:06;;;;;;;14.60;9.93;;;;;;;10.69;100.00;93466.88;5031590;28;20096;-82
2022/04/30 00:25:48;;;;;;;14.88;9.93;;;;;;;10.64;100.00;93462.34;5031610;28;20068;-82
2022/04/30 00:28:15;;;;;;;14.45;9.65;;;;;;;10.34;100.00;93444.84;5031520;28;20240;-83
2022/04/30 00:30:43;;;;;;;13.80;9.23;;;;;;;10.38;100.00;93453.72;5031216;28;20055;-82
2022/04/30 00:33:10;;;;;;;13.70;9.68;;;;;;;10.40;100.00;93469.72;5031378;28;20037;-82
2022/04/30 00:35:37;;;;;;;13.57;9.82;;;;;;;10.31;100.00;93450.38;5030861;28;20405;-82
2022/04/30 00:38:04;;;;;;;14.00;9.55;;;;;;;10.31;100.00;93442.69;5031084;28;20045;-83
2022/04/30 00:40:31;;;;;;;13.18;9.05;;;;;;;10.41;100.00;93458.44;5030770;28;20051;-82
2022/04/30 00:42:59;;;;;;;13.98;9.48;;;;;;;10.45;100.00;93463.22;5031140;28;20041;-83
2022/04/30 00:45:26;;;;;;;13.93;9.15;;;;;;;10.39;100.00;93439.09;5030908;28;20041;-83
2022/04/30 00:47:53;;;;;;;13.52;8.93;;;;;;;10.51;100.00;93465.75;5031407;28;20049;-83
2022/04/30 00:50:22;;;;;;;12.68;9.07;;;;;;;10.07;100.00;93398.72;5030662;28;20431;-83
2022/04/30 00:52:51;;;;;;;13.80;9.02;;;;;;;10.50;100.00;93461.63;5031075;28;20049;-83
2022/04/30 00:55:22;;;;;;;13.48;8.43;;;;;;;10.43;100.00;93440.31;5031015;28;20084;-83
2022/04/30 00:57:50;;;;;;;13.85;8.57;;;;;;;10.51;100.00;93460.63;5030992;28;20041;-83
2022/04/30 01:00:19;;;;;;;13.15;8.75;;;;;;;10.50;100.00;93456.47;5031262;28;20037;-83
2022/04/30 01:02:46;;;;;;;14.38;9.05;;;;;;;10.00;100.00;93413.34;5031361;28;20184;-83
2022/04/30 01:05:14;;;;;;;11.43;8.43;;;;;;;10.26;100.00;93457.91;5031203;28;20052;-83
2022/04/30 01:07:40;;;;;;;15.65;10.27;;;;;;;10.11;100.00;93456.34;5030452;28;20056;-83
2022/04/30 01:10:09;;;;;;;14.45;9.60;;;;;;;10.00;100.00;93462.88;5030577;28;20480;-83
2022/04/30 01:12:36;;;;;;;12.90;8.77;;;;;;;9.89;100.00;93471.97;5030415;28;20428;-85
2022/04/30 01:15:04;;;;;;;13.55;9.30;;;;;;;9.54;100.00;93417.53;5030908;28;20049;-83
2022/04/30 01:17:35;;;;;;;14.80;10.43;;;;;;;9.73;100.00;93450.06;5030647;28;20366;-83
2022/04/30 01:20:04;;;;;;;12.32;8.75;;;;;;;9.46;100.00;93388.53;5030164;28;20136;-84
2022/04/30 01:22:34;;;;;;;13.45;9.23;;;;;;;9.95;100.00;93451.66;5030203;28;20045;-85
2022/04/30 01:25:03;;;;;;;13.98;9.27;;;;;;;9.85;100.00;93440.00;5030354;28;20476;-86
2022/04/30 01:27:31;;;;;;;16.85;10.32;;;;;;;9.91;100.00;93450.47;5030183;28;20056;-87
2022/04/30 01:30:01;;;;;;;12.90;9.02;;;;;;;9.98;100.00;93457.16;5030334;28;20041;-86
2022/04/30 01:38:01;;;;;;;12.70;9.05;;;;;;;10.03;100.00;93451.44;5029882;28;20072;-86
2022/04/30 01:40:30;;;;;;;12.38;8.40;;;;;;;9.56;100.00;93402.72;5030423;28;20508;-86
2022/04/30 01:43:01;;;;;;;11.77;8.60;;;;;;;9.68;100.00;93426.00;5030045;28;20140;-84
2022/04/30 01:45:29;;;;;;;13.90;9.20;;;;;;;9.47;100.00;93428.59;5029939;28;20110;-85
2022/04/30 01:47:57;;;;;;;13.15;8.82;;;;;;;9.14;100.00;93377.28;5029576;28;20144;-85
2022/04/30 01:50:24;;;;;;;13.43;9.45;;;;;;;8.90;100.00;93353.81;5029705;28;20045;-85
2022/04/30 01:52:51;;;;;;;15.38;9.80;;;;;;;9.52;100.00;93448.50;5030261;28;20049;-85
2022/04/30 01:55:18;;;;;;;14.25;9.73;;;;;;;9.00;100.00;93371.34;5029910;28;20169;-84
2022/04/30 01:57:47;;;;;;;14.52;9.27;;;;;;;9.03;100.00;93373.53;5029604;28;20041;-84
2022/04/30 02:00:15;;;;;;;14.77;9.75;;;;;;;8.88;100.00;93353.22;5029856;28;20091;-85
2022/04/30 02:02:44;;;;;;;14.57;10.15;;;;;;;9.30;100.00;93423.03;5029375;28;20080;-84
2022/04/30 02:05:13;;;;;;;15.85;10.45;;;;;;;9.17;100.00;93423.81;5029642;28;20128;-84
2022/04/30 02:07:45;;;;;;;15.25;10.90;;;;;;;8.69;100.00;93368.34;5029521;28;20077;-85
2022/04/30 02:10:13;;;;;;;15.93;10.90;;;;;;;9.04;100.00;93404.09;5029563;28;20055;-85
2022/04/30 02:12:41;;;;;;;15.30;10.02;;;;;;;9.15;100.00;93433.47;5029782;28;20049;-85
2022/04/30 02:15:10;;;;;;;15.70;10.68;;;;;;;8.95;100.00;93392.44;5029840;28;20128;-85
2022/04/30 02:17:40;;;;;;;14.48;10.20;;;;;;;9.39;100.00;93435.69;5029575;28;20037;-85
2022/04/30 02:20:22;;;;;;;15.63;10.65;;;;;;;9.56;100.00;93451.44;5029723;28;20492;-85
2022/04/30 02:22:50;;;;;;;14.55;10.30;;;;;;;9.59;100.00;93451.06;5029598;28;20141;-84
2022/04/30 02:25:18;;;;;;;17.38;10.93;;;;;;;9.40;100.00;93419.31;5029614;28;20041;-85
2022/04/30 02:27:46;;;;;;;12.85;9.60;;;;;;;9.41;100.00;93426.00;5029534;28;20128;-84
2022/04/30 02:30:17;;;;;;;13.85;9.80;;;;;;;9.20;100.00;93395.22;5029786;28;20045;-85
2022/04/30 02:32:46;;;;;;;17.88;11.20;;;;;;;9.48;100.00;93435.28;5029964;28;20043;-82
2022/04/30 02:35:14;;;;;;;16.15;10.68;;;;;;;9.48;100.00;93448.09;5034844;28;20105;-83
2022/04/30 02:37:44;;;;;;;16.52;11.13;;;;;;;9.41;100.00;93436.25;5030543;28;20477;-83
2022/04/30 02:40:13;;;;;;;16.73;11.75;;;;;;;9.52;100.00;93451.06;5029475;28;20037;-82
2022/04/30 02:42:41;;;;;;;15.98;10.55;;;;;;;9.40;100.00;93438.03;5029219;28;20048;-82
2022/04/30 02:45:09;;;;;;;16.75;11.82;;;;;;;9.38;100.00;93434.88;5029516;28;20378;-84
2022/04/30 02:47:38;;;;;;;17.15;10.43;;;;;;;9.36;100.00;93432.50;5022365;28;20441;-85
2022/04/30 02:50:06;;;;;;;16.70;10.63;;;;;;;9.41;100.00;93442.19;5041105;28;20424;-83
2022/04/30 02:52:33;;;;;;;16.77;11.20;;;;;;;9.38;100.00;93440.00;5029334;28;20041;-83
2022/04/30 02:55:00;;;;;;;15.50;10.48;;;;;;;9.32;100.00;93439.03;5028936;28;20041;-83
2022/04/30 02:57:38;;;;;;;15.75;10.50;;;;;;;9.00;100.00;93417.47;5029775;28;20049;-83
2022/04/30 03:00:04;;;;;;;15.57;11.23;;;;;;;9.10;100.00;93435.84;5033224;28;20140;-82
2022/04/30 03:02:30;;;;;;;;;;;;;;;9.11;100.00;93434.06;5033404;28;20045;-82
2022/04/30 03:04:59;;;;;;;17.20;11.82;;;;;;;9.07;100.00;93439.56;5033106;28;19963;-82
2022/04/30 03:07:25;;;;;;;17.45;10.63;;;;;;;9.13;100.00;93442.34;5032899;28;20088;-81
2022/04/30 03:09:52;;;;;;;17.85;11.68;;;;;;;9.02;100.00;93429.09;5033089;28;20428;-82
2022/04/30 03:12:19;;;;;;;17.02;11.32;;;;;;;9.06;100.00;93440.56;5032687;28;20045;-82
2022/04/30 03:14:46;;;;;;;15.63;10.43;;;;;;;9.00;100.00;93445.66;5032606;28;20504;-82
2022/04/30 03:22:39;;;;;;;16.67;11.25;;;;;;;8.67;100.00;93419.75;5032531;28;20052;-85
2022/04/30 03:25:07;;;;;;;15.77;11.38;;;;;;;8.41;100.00;93387.16;5032852;28;20049;-85
2022/04/30 03:27:34;;;;;;;17.00;11.30;;;;;;;8.24;100.00;93379.78;5032839;28;20096;-85
2022/04/30 03:30:02;;;;;;;19.20;12.43;;;;;;;8.63;100.00;93456.19;5032400;28;20041;-85
2022/04/30 03:32:29;;;;;;;17.67;11.60;;;;;;;8.49;100.00;93442.50;5032520;28;20084;-85
2022/04/30 03:34:55;;;;;;;19.75;11.75;;;;;;;8.07;100.00;93383.66;5032359;28;20041;-85
2022/04/30 03:37:22;;;;;;;20.27;12.80;;;;;;;8.04;100.00;93394.28;5032107;28;20107;-85
2022/04/30 03:39:50;;;;;;;18.33;12.02;;;;;;;8.14;100.00;93403.19;5032362;28;20049;-85
2022/04/30 03:42:17;;;;;;;19.38;11.82;;;;;;;8.42;100.00;93456.06;5032848;28;20045;-85
2022/04/30 03:44:44;;;;;;;20.17;12.95;;;;;;;7.74;100.00;93354.38;5032825;28;20056;-85
2022/04/30 03:47:11;;;;;;;20.08;12.00;;;;;;;8.38;100.00;93457.44;5032077;28;20041;-87
2022/04/30 03:49:38;;;;;;;23.23;11.82;;;;;;;8.23;100.00;93431.16;5032267;28;20054;-86
2022/04/30 03:52:05;;;;;;;17.67;11.70;;;;;;;8.04;100.00;93407.84;5032749;28;20048;-86
2022/04/30 03:54:32;;;;;;;18.35;11.27;;;;;;;8.04;100.00;93407.06;5032677;28;20050;-85
2022/04/30 03:57:00;;;;;;;18.35;10.82;;;;;;;8.22;100.00;93439.81;5031906;28;20050;-86
2022/04/30 03:59:27;;;;;;;17.98;11.15;;;;;;;8.38;100.00;93461.78;5031847;28;20053;-86
2022/04/30 04:01:53;;;;;;;28.50;15.57;;;;;;;8.45;100.00;93472.81;5032006;28;20049;-85
2022/04/30 04:04:20;;;;;;;21.35;12.05;;;;;;;8.14;100.00;93426.22;5031745;28;20049;-85
2022/04/30 04:06:47;;;;;;;20.05;11.00;;;;;;;8.32;100.00;93447.94;5032550;28;20384;-85
2022/04/30 04:09:14;;;;;;;22.52;13.02;;;;;;;8.49;100.00;93463.00;5031004;28;20049;-85
2022/04/30 04:11:41;;;;;;;22.67;14.07;;;;;;;8.58;100.00;93468.78;5031891;28;20090;-85
2022/04/30 04:19:37;;;;;;;23.35;14.05;;;;;;;7.95;100.00;93368.84;5031572;28;20072;-84
2022/04/30 04:22:04;;;;;;;21.20;13.43;;;;;;;8.75;100.00;93476.94;5031498;28;20095;-84
2022/04/30 04:27:17;;;;;;;19.23;13.02;;;;;;;8.95;100.00;93466.75;5030225;28;20056;-84
2022/04/30 04:29:46;;;;;;;22.30;13.10;;;;;;;9.08;100.00;93469.34;5030596;28;20048;-84
2022/04/30 04:32:13;;;;;;;23.17;13.00;;;;;;;8.78;100.00;93415.06;5031855;28;20370;-85
2022/04/30 04:34:40;;;;;;;24.38;14.40;;;;;;;9.19;100.00;93454.38;5031784;28;20053;-85
2022/04/30 04:37:07;;;;;;;23.33;13.40;;;;;;;9.43;100.00;93470.97;5032089;28;20128;-84
2022/04/30 04:39:34;;;;;;;19.15;13.18;;;;;;;9.57;100.00;93482.03;5031167;28;20051;-84
2022/04/30 04:42:02;;;;;;;18.85;13.02;;;;;;;9.47;100.00;93454.22;5030810;28;20037;-84
2022/04/30 04:44:29;;;;;;;28.75;15.55;;;;;;;9.55;100.00;93449.88;5031187;28;20133;-83
2022/04/30 04:46:57;;;;;;;22.60;14.05;;;;;;;9.70;100.00;93470.19;5030895;28;20481;-83
2022/04/30 04:49:24;;;;;;;27.23;15.98;;;;;;;9.78;100.00;93475.16;5031030;28;20054;-82
2022/04/30 04:51:50;;;;;;;41.33;22.13;;;;;;;9.91;100.00;93476.91;5031260;28;20048;-82
2022/04/30 04:54:17;;;;;;;30.52;17.65;;;;;;;9.95;100.00;93478.09;5030956;28;20049;-83
2022/04/30 04:56:44;;;;;;;32.03;20.25;;;;;;;10.10;100.00;93477.09;5031151;28;20041;-83
2022/04/30 04:59:12;;;;;;;77.60;39.63;;;;;;;10.11;100.00;93460.69;5030915;28;20045;-83
2022/04/30 05:01:39;;;;;;;35.90;24.70;;;;;;;10.15;100.00;93454.94;5031004;28;20383;-84
2022/04/30 05:04:08;;;;;;;34.55;21.00;;;;;;;10.34;100.00;93480.81;5030886;28;20461;-84
2022/04/30 05:06:35;;;;;;;34.03;22.23;;;;;;;10.06;100.00;93422.81;5030533;28;20041;-83
2022/04/30 05:09:02;;;;;;;22.73;14.23;;;;;;;10.41;100.00;93476.44;5030547;28;20048;-83
2022/04/30 05:11:32;;;;;;;21.70;14.23;;;;;;;10.51;100.00;93482.97;5030496;28;20049;-83
2022/04/30 05:13:59;;;;;;;22.80;14.05;;;;;;;10.32;100.00;93440.91;5030835;28;20049;-85
2022/04/30 05:16:26;;;;;;;20.35;13.57;;;;;;;10.29;100.00;93430.03;5030763;28;20496;-85
2022/04/30 05:18:52;;;;;;;23.27;15.95;;;;;;;10.71;100.00;93475.19;5030929;28;20099;-85
2022/04/30 05:21:21;;;;;;;18.88;12.20;;;;;;;10.56;100.00;93440.25;5030164;28;20042;-86
2022/04/30 05:23:48;;;;;;;25.88;19.70;;;;;;;10.47;100.00;93415.81;5034660;28;20119;-85
2022/04/30 05:26:15;;;;;;;20.33;14.32;;;;;;;11.08;100.00;93490.81;5039462;28;20394;-86
2022/04/30 05:28:42;;;;;;;22.10;13.20;;;;;;;11.06;100.00;93471.50;5034430;28;20037;-86
2022/04/30 05:31:09;;;;;;;20.17;11.27;;;;;;;11.25;100.00;93492.16;5030604;28;20049;-84
2022/04/30 05:33:36;;;;;;;20.80;11.82;;;;;;;11.38;100.00;93491.28;5030257;28;20046;-84
2022/04/30 05:36:03;;;;;;;20.67;11.52;;;;;;;11.50;100.00;93494.75;5030253;28;20041;-84
2022/04/30 05:38:31;;;;;;;23.45;13.02;;;;;;;11.25;100.00;93444.06;5011176;28;20444;-84
2022/04/30 05:40:58;;;;;;;22.38;14.05;;;;;;;11.52;100.00;93468.84;5010859;28;20061;-84
2022/04/30 05:43:25;;;;;;;19.60;13.18;;;;;;;11.75;99.27;93489.66;5010605;28;20053;-84
2022/04/30 05:45:52;;;;;;;42.92;29.67;;;;;;;11.46;98.39;93445.53;5010510;28;20049;-85
2022/04/30 05:48:19;;;;;;;27.35;18.48;;;;;;;11.91;97.40;93484.97;5010036;28;20046;-85
2022/04/30 05:50:46;;;;;;;22.10;12.60;;;;;;;11.68;97.69;93439.22;5009952;28;20052;-85
2022/04/30 05:53:12;;;;;;;17.52;12.60;;;;;;;12.19;97.24;93506.94;5010516;28;20424;-84
2022/04/30 05:55:41;;;;;;;18.55;11.95;;;;;;;12.21;96.47;93499.00;5010214;28;20050;-84
2022/04/30 05:58:07;;;;;;;16.52;10.70;;;;;;;12.43;96.14;93507.91;5010225;28;20038;-84
2022/04/30 06:00:34;;;;;;;17.55;11.38;;;;;;;12.02;95.98;93424.28;5010238;28;20054;-84
2022/04/30 06:03:01;;;;;;;13.48;10.38;;;;;;;12.74;96.04;93507.19;5010575;28;20425;-83
2022/04/30 06:05:28;;;;;;;15.35;10.68;;;;;;;12.58;99.03;93486.16;5010472;28;20053;-83
2022/04/30 06:07:55;;;;;;;17.60;10.55;;;;;;;12.63;96.30;93478.56;5010376;28;20045;-83
2022/04/30 06:10:22;;;;;;;16.95;11.20;;;;;;;13.07;96.75;93496.50;5010265;28;20537;-83
2022/04/30 06:12:50;;;;;;;15.57;10.00;;;;;;;12.57;95.40;93417.59;5010058;28;20037;-84
2022/04/30 06:15:17;;;;;;;15.00;10.40;;;;;;;12.96;96.59;93479.16;5010091;28;20164;-84
2022/04/30 06:18:02;;;;;;;15.43;10.20;;;;;;;13.00;94.78;93487.28;5009711;28;20469;-83
2022/04/30 06:20:30;;;;;;;14.75;9.63;;;;;;;13.10;96.00;93493.47;5009771;28;20061;-83
2022/04/30 06:22:57;;;;;;;14.82;9.38;;;;;;;13.19;94.79;93477.72;5018311;28;20489;-84
2022/04/30 06:25:23;;;;;;;14.40;9.70;;;;;;;13.13;94.11;93478.56;5029343;28;20549;-83
2022/04/30 06:27:52;;;;;;;14.25;9.00;;;;;;;13.14;93.82;93457.72;5029531;28;20042;-86
2022/04/30 06:30:18;;;;;;;16.17;9.65;;;;;;;13.30;92.35;93489.88;5029457;28;20494;-86
2022/04/30 06:32:45;;;;;;;17.15;9.70;;;;;;;13.34;93.33;93405.06;5029094;28;20041;-86
2022/04/30 06:35:12;;;;;;;13.85;8.95;;;;;;;14.56;90.77;93484.75;5027115;28;20037;-85
2022/04/30 06:37:39;;;;;;;13.48;8.32;;;;;;;14.75;86.42;93474.25;5027357;28;20045;-85
2022/04/30 06:40:07;;;;;;;11.93;8.18;;;;;;;14.51;84.85;93489.00;5028458;28;20056;-84
2022/04/30 06:42:41;;;;;;;11.82;8.05;;;;;;;14.32;86.44;93470.25;5029244;28;20400;-84
2022/04/30 06:45:11;;;;;;;11.07;7.75;;;;;;;14.66;87.31;93489.31;5029307;28;20045;-83
2022/04/30 06:47:38;;;;;;;10.10;6.65;;;;;;;14.15;83.61;93458.81;5029365;28;20400;-83
2022/04/30 06:50:06;;;;;;;11.00;6.88;;;;;;;14.03;84.89;93469.13;5029165;28;20099;-84
2022/04/30 06:52:33;;;;;;;9.55;6.50;;;;;;;13.81;85.33;93440.50;5028990;28;20038;-83
2022/04/30 06:57:45;;;;;;;11.85;7.28;;;;;;;14.53;83.27;93474.84;5028975;28;20056;-85
2022/04/30 07:02:59;;;;;;;11.73;7.28;;;;;;;14.79;80.50;93469.41;5028733;28;20060;-84
2022/04/30 07:05:26;;;;;;;9.25;6.05;;;;;;;14.41;79.10;93454.16;5029289;28;20045;-83
2022/04/30 07:07:53;;;;;;;9.98;6.57;;;;;;;14.27;79.97;93456.22;5028832;28;20481;-83
2022/04/30 07:10:20;;;;;;;9.20;6.80;;;;;;;14.68;79.75;93471.78;5028896;28;20057;-83
2022/04/30 07:12:47;;;;;;;9.60;6.50;;;;;;;14.58;81.21;93471.56;5028757;28;20041;-84
2022/04/30 07:15:15;;;;;;;9.13;6.40;;;;;;;14.83;79.95;93449.84;5029096;28;20045;-84
2022/04/30 07:17:42;;;;;;;10.55;6.68;;;;;;;14.73;80.04;93465.13;5028615;28;20485;-83
2022/04/30 07:20:10;;;;;;;10.40;7.15;;;;;;;15.22;79.85;93457.81;5029074;28;20472;-83
2022/04/30 07:22:39;;;;;;;9.88;6.93;;;;;;;15.47;77.79;93472.19;5028718;28;20045;-83
2022/04/30 07:25:06;;;;;;;10.60;7.38;;;;;;;15.08;77.12;93469.44;5029026;28;20050;-84
2022/04/30 07:27:33;;;;;;;11.50;8.07;;;;;;;15.45;75.85;93471.63;5028678;28;20045;-83
2022/04/30 07:30:01;;;;;;;10.15;7.45;;;;;;;15.15;76.53;93441.63;5028473;28;20095;-83
2022/04/30 07:32:30;;;;;;;10.27;7.07;;;;;;;14.91;80.05;93435.78;5029122;28;20050;-83
2022/04/30 07:34:56;;;;;;;9.52;6.68;;;;;;;14.63;78.39;93463.16;5028577;28;20068;-82
2022/04/30 07:37:23;;;;;;;9.23;5.80;;;;;;;15.23;78.37;93463.78;5028939;28;20045;-83
2022/04/30 07:39:50;;;;;;;10.13;6.40;;;;;;;15.48;75.78;93468.59;5028627;28;20476;-83
2022/04/30 07:42:17;;;;;;;10.80;7.20;;;;;;;15.58;73.57;93462.78;5028854;28;20041;-83
2022/04/30 07:44:44;;;;;;;11.85;6.45;;;;;;;15.85;73.23;93480.31;5029844;28;20045;-83
2022/04/30 07:47:10;;;;;;;10.63;6.13;;;;;;;16.41;72.70;93464.03;5032076;28;20111;-82
2022/04/30 07:49:41;;;;;;;8.65;5.68;;;;;;;16.41;69.27;93469.22;5032254;28;20095;-83
2022/04/30 07:52:08;;;;;;;7.75;5.07;;;;;;;15.25;72.66;93472.06;5032196;28;20049;-83
2022/04/30 07:54:35;;;;;;;9.27;6.00;;;;;;;15.46;73.42;93467.25;5031899;28;20377;-83
2022/04/30 07:57:02;;;;;;;8.30;5.55;;;;;;;15.25;72.66;93468.69;5031802;28;20042;-83
2022/04/30 07:59:29;;;;;;;8.98;5.88;;;;;;;15.05;73.66;93452.56;5034763;28;20543;-83
2022/04/30 08:01:56;;;;;;;9.27;6.32;;;;;;;15.33;74.69;93460.56;5034600;28;20045;-83
2022/04/30 08:04:23;;;;;;;8.02;5.38;;;;;;;15.58;73.04;93460.22;5034385;28;20048;-82
2022/04/30 08:06:51;;;;;;;10.77;7.30;;;;;;;15.60;72.73;93465.16;5034904;28;20049;-82
2022/04/30 08:09:21;;;;;;;8.63;5.22;;;;;;;15.72;71.67;93439.97;5034592;28;20393;-82
2022/04/30 08:11:48;;;;;;;7.70;5.38;;;;;;;15.44;72.68;93458.94;5035898;28;20077;-83
2022/04/30 08:14:15;;;;;;;8.25;5.55;;;;;;;15.60;70.52;93458.16;5038158;28;20042;-83
2022/04/30 08:16:42;;;;;;;8.13;5.50;;;;;;;15.49;71.94;93400.25;5034395;28;20496;-84
2022/04/30 08:19:09;;;;;;;7.50;5.15;;;;;;;16.09;69.08;93459.44;5034480;28;20037;-84
2022/04/30 08:21:35;;;;;;;7.88;5.63;;;;;;;15.18;69.46;93425.63;5034719;28;20054;-83
2022/04/30 08:24:04;;;;;;;8.27;5.25;;;;;;;15.84;69.92;93455.41;5033650;28;20045;-83
2022/04/30 08:26:31;;;;;;;8.15;4.90;;;;;;;15.52;70.71;93450.00;5033871;28;20060;-83
2022/04/30 08:28:59;;;;;;;8.43;5.60;;;;;;;15.61;69.82;93430.47;5033659;28;20457;-82
2022/04/30 08:31:26;;;;;;;8.52;5.43;;;;;;;15.60;67.34;93459.97;5033680;28;20042;-83
2022/04/30 08:33:54;;;;;;;8.82;5.32;;;;;;;15.45;70.21;93456.09;5033697;28;20108;-83
2022/04/30 08:36:21;;;;;;;8.65;5.15;;;;;;;15.41;70.86;93415.41;5033662;28;20401;-84
2022/04/30 08:38:48;;;;;;;7.20;4.90;;;;;;;15.44;68.42;93422.69;5033499;28;20477;-83
2022/04/30 08:41:16;;;;;;;9.13;5.07;;;;;;;15.50;67.89;93448.44;5033549;28;20041;-83
2022/04/30 08:43:47;;;;;;;7.18;4.63;;;;;;;15.99;68.37;93448.94;5033288;28;20045;-83
2022/04/30 08:46:14;;;;;;;7.68;4.75;;;;;;;16.22;65.10;93437.59;5033625;28;20049;-84
2022/04/30 08:48:44;;;;;;;9.07;5.03;;;;;;;15.75;64.46;93408.41;5033130;28;20469;-83
2022/04/30 08:51:11;;;;;;;7.65;4.50;;;;;;;16.21;64.78;93443.00;5033564;28;20128;-84
2022/04/30 08:53:38;;;;;;;7.60;4.68;;;;;;;16.23;65.20;93418.44;5033172;28;20124;-83
2022/04/30 08:56:07;;;;;;;7.72;4.95;;;;;;;16.11;63.84;93431.47;5032928;28;20041;-84
2022/04/30 08:58:35;;;;;;;7.50;4.63;;;;;;;15.88;64.79;93435.78;5031916;28;20089;-84
2022/04/30 09:01:05;;;;;;;7.47;4.80;;;;;;;16.15;63.60;93429.97;5031007;28;20052;-83
2022/04/30 09:03:35;;;;;;;6.18;3.55;;;;;;;16.18;63.15;93441.69;5030876;28;20394;-83
2022/04/30 09:06:02;;;;;;;9.50;5.03;;;;;;;15.98;63.31;93437.75;5030880;28;20042;-83
2022/04/30 09:08:29;;;;;;;7.40;4.40;;;;;;;16.37;61.50;93433.63;5030940;28;20053;-82
2022/04/30 09:11:05;;;;;;;6.97;4.32;;;;;;;16.57;60.61;93427.91;5030808;28;20396;-84
2022/04/30 09:13:33;;;;;;;7.72;4.28;;;;;;;17.06;60.25;93429.78;5030520;28;20436;-83
2022/04/30 09:16:01;;;;;;;6.55;4.47;;;;;;;17.32;57.47;93440.38;5030708;28;20124;-84
2022/04/30 09:18:28;;;;;;;5.70;4.28;;;;;;;17.41;58.43;93439.94;5030677;28;20439;-83
2022/04/30 09:20:55;;;;;;;6.72;4.10;;;;;;;17.74;57.72;93425.16;5030799;28;20045;-83
2022/04/30 09:23:26;;;;;;;8.93;4.97;;;;;;;16.98;59.56;93434.59;5029814;28;20065;-84
2022/04/30 09:25:55;;;;;;;6.32;4.43;;;;;;;16.13;60.20;93388.00;5030326;28;20049;-84
2022/04/30 09:28:26;;;;;;;6.15;4.18;;;;;;;16.33;63.51;93427.38;5030482;28;20438;-84
2022/04/30 09:31:07;;;;;;;7.95;4.70;;;;;;;16.38;63.76;93411.88;5030284;28;20050;-85
2022/04/30 09:33:34;;;;;;;8.10;4.78;;;;;;;16.75;62.14;93393.09;5030712;28;20087;-83
2022/04/30 09:38:48;;;;;;;6.63;4.65;;;;;;;16.59;66.33;93412.09;5030339;28;20175;-83
2022/04/30 09:41:15;;;;;;;7.35;5.13;;;;;;;16.21;65.79;93423.06;5030347;28;20042;-83
2022/04/30 09:43:43;;;;;;;9.98;5.80;;;;;;;16.05;64.48;93422.06;5029719;28;20546;-85
2022/04/30 09:46:11;;;;;;;6.40;4.30;;;;;;;15.96;65.66;93405.38;5030198;28;20045;-83
2022/04/30 09:54:07;;;;;;;7.65;4.57;;;;;;;16.65;66.72;93398.97;5029791;28;20049;-84
2022/04/30 09:56:36;;;;;;;7.40;4.93;;;;;;;16.32;66.99;93379.91;5029791;28;20053;-84
2022/04/30 09:59:08;;;;;;;6.18;4.40;;;;;;;16.53;63.75;93400.91;5029845;28;20392;-83
2022/04/30 10:01:38;;;;;;;7.80;5.05;;;;;;;16.83;66.43;93408.25;5029901;28;20073;-83
2022/04/30 10:04:08;;;;;;;7.30;4.70;;;;;;;16.26;67.45;93396.44;5029448;28;20488;-83
2022/04/30 10:06:36;;;;;;;6.28;4.10;;;;;;;16.85;64.10;93399.44;5029643;28;20125;-84
2022/04/30 10:09:08;;;;;;;6.78;4.32;;;;;;;16.64;63.72;93352.50;5029159;28;20392;-82
2022/04/30 10:11:42;;;;;;;7.30;4.57;;;;;;;16.61;65.27;93377.13;5030082;28;20141;-83
2022/04/30 10:14:31;;;;;;;5.97;4.05;;;;;;;17.14;65.14;93376.66;5029611;28;20485;-83
2022/04/30 10:19:41;;;;;;;6.50;4.15;;;;;;;16.88;63.75;93397.13;5028781;28;20049;-83
2022/04/30 10:22:17;;;;;;;6.18;3.78;;;;;;;16.98;64.17;93388.66;5029358;28;20045;-84
2022/04/30 10:24:49;;;;;;;6.55;3.75;;;;;;;16.60;64.42;93380.75;5029845;28;20049;-84
2022/04/30 10:27:17;;;;;;;5.55;3.35;;;;;;;16.48;64.28;93386.06;5029200;28;20052;-83
2022/04/30 10:29:54;;;;;;;7.38;4.13;;;;;;;16.45;63.74;93333.91;5029353;28;20084;-84
2022/04/30 10:32:31;;;;;;;5.95;3.30;;;;;;;16.60;61.55;93352.22;5028998;28;20056;-82
2022/04/30 10:34:58;;;;;;;6.78;4.07;;;;;;;16.42;63.64;93374.84;5029554;28;20382;-83
2022/04/30 10:37:35;;;;;;;6.70;3.90;;;;;;;16.67;62.85;93390.94;5029636;28;20068;-82
2022/04/30 10:40:04;;;;;;;5.22;3.53;;;;;;;16.59;62.26;93380.97;5029608;28;20050;-83
2022/04/30 10:42:32;;;;;;;5.13;2.95;;;;;;;16.84;62.84;93380.47;5030124;28;20424;-83
2022/04/30 10:44:59;;;;;;;5.18;3.22;;;;;;;16.54;62.40;93350.59;5029857;28;20053;-86
2022/04/30 10:47:26;;;;;;;5.25;3.00;;;;;;;17.19;61.32;93376.69;5035828;28;20424;-83
2022/04/30 10:49:55;;;;;;;4.30;2.72;;;;;;;16.72;59.57;93367.66;5033867;28;21122;-83
2022/04/30 10:52:24;;;;;;;9.23;2.85;;;;;;;17.03;60.79;93375.75;5029494;28;20497;-83
2022/04/30 10:54:54;;;;;;;5.05;2.80;;;;;;;17.13;60.01;93380.25;5029202;28;20053;-83
2022/04/30 10:57:21;;;;;;;4.82;2.70;;;;;;;17.29;58.69;93365.59;5026786;28;20050;-83
2022/04/30 10:59:58;;;;;;;4.90;3.05;;;;;;;16.83;58.68;93368.53;5028002;28;20041;-84
2022/04/30 11:02:30;;;;;;;4.53;2.45;;;;;;;17.30;57.88;93363.78;5028936;28;20535;-83
2022/04/30 11:04:58;;;;;;;5.45;3.08;;;;;;;17.50;57.00;93368.38;5028670;28;20053;-83
2022/04/30 11:07:27;;;;;;;4.43;2.85;;;;;;;17.19;55.63;93368.91;5028928;28;20496;-83
2022/04/30 11:09:54;;;;;;;5.75;3.33;;;;;;;17.29;56.80;93357.03;5029216;28;20088;-83
2022/04/30 11:12:21;;;;;;;5.05;2.85;;;;;;;17.63;55.67;93356.75;5029060;28;20431;-83
2022/04/30 11:14:48;;;;;;;4.88;3.05;;;;;;;17.42;56.73;93369.59;5029091;28;20068;-83
2022/04/30 11:17:15;;;;;;;6.03;3.15;;;;;;;17.38;56.16;93371.13;5027784;28;20041;-82
2022/04/30 11:19:44;;;;;;;4.75;2.80;;;;;;;17.60;55.48;93372.84;5030544;28;20049;-83
2022/04/30 11:22:13;;;;;;;3.47;2.45;;;;;;;18.06;54.39;93369.78;5031660;28;20091;-82
2022/04/30 11:24:43;;;;;;;5.75;2.95;;;;;;;17.62;55.46;93366.38;5032133;28;20082;-83
2022/04/30 11:27:12;;;;;;;5.13;2.97;;;;;;;17.94;54.37;93377.72;5032053;28;20137;-82
2022/04/30 11:29:49;;;;;;;5.00;2.72;;;;;;;17.57;57.97;93353.34;5029363;28;20485;-83
2022/04/30 11:32:21;;;;;;;5.90;2.70;;;;;;;17.69;55.97;93373.91;5031892;28;20045;-82
2022/04/30 11:34:47;;;;;;;4.75;3.00;;;;;;;17.23;57.21;93364.75;5032517;28;20041;-82
2022/04/30 11:37:16;;;;;;;5.35;3.00;;;;;;;17.43;56.86;93353.00;5032051;28;20103;-83
2022/04/30 11:39:42;;;;;;;4.22;2.50;;;;;;;17.15;56.06;93362.63;5032377;28;20041;-82
2022/04/30 11:42:10;;;;;;;4.72;2.67;;;;;;;17.43;55.47;93371.16;5032170;28;20052;-82
2022/04/30 11:44:37;;;;;;;5.20;3.20;;;;;;;17.49;55.94;93356.38;5032023;28;20167;-82
2022/04/30 11:47:08;;;;;;;4.00;2.47;;;;;;;17.46;55.62;93359.50;5032208;28;20056;-82
2022/04/30 11:49:35;;;;;;;4.03;2.85;;;;;;;17.90;54.10;93363.66;5032174;28;20071;-82
2022/04/30 11:52:02;;;;;;;4.90;2.83;;;;;;;17.87;56.64;93354.56;5031721;28;20045;-82
2022/04/30 11:54:31;;;;;;;6.00;2.90;;;;;;;17.97;52.97;93363.44;5031940;28;20045;-81
2022/04/30 11:56:58;;;;;;;4.43;3.05;;;;;;;18.34;52.39;93354.81;5032102;28;20112;-81
2022/04/30 11:59:34;;;;;;;4.43;2.58;;;;;;;17.80;53.60;93351.41;5031761;28;20430;-82
2022/04/30 12:02:02;;;;;;;4.75;2.50;;;;;;;17.30;52.24;93354.19;5031512;28;20077;-82
2022/04/30 12:04:32;;;;;;;3.75;2.45;;;;;;;17.28;52.04;93342.47;5032022;28;20050;-82